Time;durP1;ratioP1;P1;durP2;ratioP2;P2;SDS_P1;SDS_P2;PMS_P1;PMS_P2;Temp;Humidity;BMP_temperature;BMP_pressure;BME280_temperature;BME280_humidity;BME280_pressure;Samples;Min_cycle;Max_cycle;Signal;HPM_P1;HPM_P2
2023/12/11 00:00:22;;;;;;;0.60;0.60;;;;;;;12.49;100.00;99178.66;5009537;28;20447;-59
2023/12/11 00:02:47;;;;;;;0.50;0.50;;;;;;;12.61;100.00;99188.66;5010500;28;20022;-60
2023/12/11 00:05:13;;;;;;;0.60;0.60;;;;;;;12.69;100.00;99175.78;5007862;28;20085;-59
2023/12/11 00:07:38;;;;;;;0.60;0.60;;;;;;;12.77;100.00;99173.53;5007508;28;20040;-60
2023/12/11 00:10:04;;;;;;;0.60;0.60;;;;;;;12.86;100.00;99173.06;5011590;28;20026;-60
2023/12/11 00:12:29;;;;;;;0.60;0.60;;;;;;;12.91;100.00;99162.97;4994782;28;20081;-59
2023/12/11 00:14:55;;;;;;;0.60;0.60;;;;;;;12.91;100.00;99160.31;5005719;28;20038;-60
2023/12/11 00:17:21;;;;;;;0.50;0.50;;;;;;;12.88;100.00;99165.78;5008966;28;20037;-59
2023/12/11 00:19:46;;;;;;;0.50;0.50;;;;;;;12.88;100.00;99178.31;5009990;28;20029;-60
2023/12/11 00:22:12;;;;;;;0.47;0.47;;;;;;;12.88;100.00;99192.47;5008912;28;20406;-60
2023/12/11 00:24:37;;;;;;;0.60;0.60;;;;;;;12.90;100.00;99195.06;5009974;28;20184;-60
2023/12/11 00:27:02;;;;;;;0.50;0.50;;;;;;;12.91;100.00;99205.69;5008582;28;20549;-60
2023/12/11 00:29:28;;;;;;;0.60;0.60;;;;;;;12.91;100.00;99195.00;5010550;28;20033;-60
2023/12/11 00:31:53;;;;;;;0.60;0.60;;;;;;;12.89;100.00;99214.72;5010051;28;20105;-61
2023/12/11 00:34:19;;;;;;;0.60;0.60;;;;;;;12.88;100.00;99211.16;5007014;28;20064;-59
2023/12/11 00:36:45;;;;;;;0.60;0.60;;;;;;;12.84;100.00;99216.75;5010861;28;20025;-60
2023/12/11 00:39:12;;;;;;;0.60;0.60;;;;;;;12.84;100.00;99214.09;5009351;28;20113;-60
2023/12/11 00:41:38;;;;;;;0.60;0.60;;;;;;;12.84;100.00;99212.31;5010260;28;20033;-59
2023/12/11 00:44:03;;;;;;;0.50;0.50;;;;;;;12.83;100.00;99218.56;5010799;28;20032;-59
2023/12/11 00:46:28;;;;;;;0.50;0.50;;;;;;;12.83;100.00;99226.56;5010444;28;20033;-60
2023/12/11 00:48:54;;;;;;;0.60;0.60;;;;;;;12.84;100.00;99190.06;5007390;28;20058;-59
2023/12/11 00:51:20;;;;;;;0.60;0.60;;;;;;;12.79;100.00;99185.00;4991564;28;20030;-58
2023/12/11 00:53:47;;;;;;;0.50;0.50;;;;;;;12.75;100.00;99196.78;4991111;28;20130;-59
2023/12/11 00:56:13;;;;;;;0.60;0.60;;;;;;;12.69;100.00;99186.44;4993709;28;20030;-59
2023/12/11 00:58:38;;;;;;;0.60;0.60;;;;;;;12.66;100.00;99196.41;4994380;28;20033;-59
2023/12/11 01:01:04;;;;;;;0.60;0.60;;;;;;;12.57;100.00;99202.25;5010319;28;20508;-59
2023/12/11 01:03:29;;;;;;;0.60;0.60;;;;;;;12.51;100.00;99198.09;4999440;28;20371;-58
2023/12/11 01:05:55;;;;;;;0.50;0.50;;;;;;;12.54;100.00;99211.28;5009372;28;20327;-59
2023/12/11 01:08:21;;;;;;;0.50;0.50;;;;;;;12.56;100.00;99195.19;5002042;28;20084;-59
2023/12/11 01:10:46;;;;;;;0.63;0.63;;;;;;;12.50;100.00;99193.72;5003765;28;20029;-58
2023/12/11 01:13:11;;;;;;;0.50;0.50;;;;;;;12.47;100.00;99191.19;5007652;28;20021;-59
2023/12/11 01:15:37;;;;;;;0.60;0.60;;;;;;;12.44;100.00;99185.16;4998661;28;20028;-58
2023/12/11 01:18:02;;;;;;;0.60;0.60;;;;;;;12.42;100.00;99197.75;5008103;28;20057;-58
2023/12/11 01:20:28;;;;;;;0.50;0.50;;;;;;;12.43;100.00;99203.00;4999089;28;20062;-59
2023/12/11 01:22:53;;;;;;;0.60;0.60;;;;;;;12.39;100.00;99208.56;5006850;28;20393;-59
2023/12/11 01:25:18;;;;;;;0.60;0.60;;;;;;;12.37;100.00;99213.97;5010200;28;20033;-62
2023/12/11 01:27:44;;;;;;;0.52;0.52;;;;;;;12.31;100.00;99200.97;4996038;28;20045;-63
2023/12/11 01:30:10;;;;;;;0.60;0.60;;;;;;;12.32;100.00;99212.50;4994468;28;20805;-62
2023/12/11 01:32:35;;;;;;;0.55;0.55;;;;;;;12.27;100.00;99215.41;5016338;28;20079;-64
2023/12/11 01:35:00;;;;;;;0.60;0.60;;;;;;;12.16;100.00;99207.09;5011891;28;20457;-64
2023/12/11 01:37:26;;;;;;;0.60;0.60;;;;;;;12.19;100.00;99217.59;5014488;28;20056;-63
2023/12/11 01:39:51;;;;;;;0.60;0.60;;;;;;;12.18;100.00;99210.53;5015853;28;20025;-64
2023/12/11 01:42:17;;;;;;;0.60;0.60;;;;;;;12.22;100.00;99200.59;5014771;28;20021;-63
2023/12/11 01:44:42;;;;;;;0.60;0.60;;;;;;;12.23;100.00;99208.50;4998108;28;20113;-63
2023/12/11 01:47:08;;;;;;;0.60;0.60;;;;;;;12.19;100.00;99198.91;5010285;28;20034;-64
2023/12/11 01:49:35;;;;;;;0.52;0.52;;;;;;;12.13;100.00;99196.59;5010247;28;20168;-64
2023/12/11 01:52:01;;;;;;;0.60;0.60;;;;;;;12.09;100.00;99189.72;5015336;28;20041;-63
2023/12/11 01:54:26;;;;;;;0.60;0.60;;;;;;;12.13;100.00;99187.72;5013049;28;20416;-62
2023/12/11 01:56:51;;;;;;;0.60;0.60;;;;;;;12.09;100.00;99188.84;4996274;28;20037;-64
2023/12/11 01:59:18;;;;;;;0.68;0.68;;;;;;;12.12;100.00;99181.53;4991890;28;20034;-64
2023/12/11 02:01:44;;;;;;;0.70;0.70;;;;;;;12.15;100.00;99189.38;5002598;28;20079;-64
2023/12/11 02:04:10;;;;;;;0.70;0.70;;;;;;;12.16;100.00;99185.75;5010803;28;20034;-65
2023/12/11 02:06:35;;;;;;;0.60;0.60;;;;;;;12.17;100.00;99182.16;5007920;28;20057;-64
2023/12/11 02:09:01;;;;;;;0.60;0.60;;;;;;;12.20;100.00;99175.78;4990382;28;20038;-65
2023/12/11 02:11:27;;;;;;;0.60;0.60;;;;;;;12.18;100.00;99189.22;4989630;28;20087;-64
2023/12/11 02:13:52;;;;;;;0.60;0.60;;;;;;;12.18;100.00;99197.22;4992236;28;20481;-64
2023/12/11 02:16:18;;;;;;;0.60;0.60;;;;;;;12.20;100.00;99203.34;5003379;28;20581;-64
2023/12/11 02:18:44;;;;;;;0.70;0.70;;;;;;;12.21;100.00;99196.22;4996512;28;20096;-64
2023/12/11 02:21:11;;;;;;;0.60;0.60;;;;;;;12.21;100.00;99207.72;5008641;28;20080;-64
2023/12/11 02:23:59;;;;;;;0.60;0.60;;;;;;;12.23;100.00;99203.16;5008932;28;20130;-64
2023/12/11 02:26:25;;;;;;;0.57;0.57;;;;;;;12.25;100.00;99209.28;4997782;28;20049;-64
2023/12/11 02:28:50;;;;;;;0.60;0.60;;;;;;;12.23;100.00;99197.84;5009325;28;20123;-62
2023/12/11 02:31:16;;;;;;;0.70;0.70;;;;;;;12.26;100.00;99204.78;5006038;28;20057;-65
2023/12/11 02:33:42;;;;;;;0.70;0.70;;;;;;;12.25;100.00;99193.28;5008693;28;20033;-58
2023/12/11 02:36:07;;;;;;;0.60;0.60;;;;;;;12.18;100.00;99181.22;5009105;28;20029;-58
2023/12/11 02:38:33;;;;;;;0.60;0.60;;;;;;;12.32;100.00;99196.50;5011137;28;20031;-58
2023/12/11 02:40:58;;;;;;;0.50;0.50;;;;;;;12.35;100.00;99191.88;5011917;28;20033;-59
2023/12/11 02:43:24;;;;;;;0.60;0.60;;;;;;;12.40;100.00;99181.81;5009179;28;20101;-59
2023/12/11 02:45:49;;;;;;;0.70;0.70;;;;;;;12.45;100.00;99187.78;5012980;28;20088;-59
2023/12/11 02:48:15;;;;;;;0.60;0.60;;;;;;;12.49;100.00;99175.97;5008723;28;20034;-59
2023/12/11 02:50:40;;;;;;;0.60;0.60;;;;;;;12.51;100.00;99176.75;5012994;28;20061;-59
2023/12/11 02:53:06;;;;;;;0.52;0.52;;;;;;;12.56;100.00;99179.19;5012414;28;20042;-59
2023/12/11 02:55:31;;;;;;;0.60;0.60;;;;;;;12.55;100.00;99177.47;5012526;28;20022;-58
2023/12/11 02:57:58;;;;;;;0.50;0.50;;;;;;;12.52;100.00;99186.47;5012891;28;20029;-59
2023/12/11 03:00:25;;;;;;;0.60;0.60;;;;;;;12.53;100.00;99180.22;5012579;28;20022;-59
2023/12/11 03:02:50;;;;;;;0.60;0.60;;;;;;;12.50;100.00;99180.38;5012055;28;20045;-59
2023/12/11 03:05:15;;;;;;;0.60;0.60;;;;;;;12.53;100.00;99185.56;5012585;28;20030;-59
2023/12/11 03:07:41;;;;;;;0.60;0.60;;;;;;;12.49;100.00;99181.31;5011840;28;20026;-59
2023/12/11 03:10:07;;;;;;;0.60;0.60;;;;;;;12.48;100.00;99179.59;5011739;28;20088;-59
2023/12/11 03:12:32;;;;;;;0.60;0.60;;;;;;;12.45;100.00;99161.09;5011699;28;20026;-59
2023/12/11 03:14:58;;;;;;;0.60;0.60;;;;;;;12.45;100.00;99161.09;5011769;28;20096;-59
2023/12/11 03:17:23;;;;;;;0.60;0.60;;;;;;;12.45;100.00;99154.91;5003973;28;20025;-59
2023/12/11 03:19:49;;;;;;;0.50;0.50;;;;;;;12.44;100.00;99164.69;5007030;28;20632;-59
2023/12/11 03:22:14;;;;;;;0.60;0.60;;;;;;;12.45;100.00;99157.56;5011339;28;20112;-60
2023/12/11 03:24:39;;;;;;;0.60;0.60;;;;;;;12.47;100.00;99159.19;5011829;28;20036;-59
2023/12/11 03:27:05;;;;;;;0.57;0.57;;;;;;;12.46;100.00;99146.81;5011512;28;20601;-59
2023/12/11 03:29:30;;;;;;;0.60;0.60;;;;;;;12.43;100.00;99141.66;5011714;28;20114;-59
2023/12/11 03:31:56;;;;;;;0.60;0.60;;;;;;;12.42;100.00;99133.72;5011657;28;20029;-58
2023/12/11 03:34:21;;;;;;;0.50;0.50;;;;;;;12.42;100.00;99134.56;5023558;28;20051;-59
2023/12/11 03:36:46;;;;;;;0.60;0.60;;;;;;;12.45;100.00;99121.09;5028797;28;20032;-59
2023/12/11 03:39:12;;;;;;;0.60;0.60;;;;;;;12.46;100.00;99114.81;5004618;28;20022;-59
2023/12/11 03:41:38;;;;;;;0.65;0.65;;;;;;;12.43;100.00;99104.31;5029796;28;20029;-60
2023/12/11 03:44:04;;;;;;;0.50;0.50;;;;;;;12.38;100.00;99109.03;5030275;28;20018;-64
2023/12/11 03:46:29;;;;;;;0.60;0.60;;;;;;;12.34;100.00;99104.78;5016690;28;20026;-63
2023/12/11 03:48:55;;;;;;;0.70;0.70;;;;;;;12.36;100.00;99118.91;5018982;28;20100;-64
2023/12/11 03:51:20;;;;;;;0.60;0.60;;;;;;;12.30;100.00;99132.59;5021844;28;20045;-64
2023/12/11 03:53:45;;;;;;;0.60;0.60;;;;;;;12.22;100.00;99129.47;5010786;28;20037;-64
2023/12/11 03:56:11;;;;;;;0.60;0.60;;;;;;;12.17;100.00;99142.19;5010763;28;20041;-64
2023/12/11 03:58:36;;;;;;;0.60;0.60;;;;;;;12.15;100.00;99173.38;5042633;28;20408;-65
2023/12/11 04:01:02;;;;;;;0.50;0.50;;;;;;;12.16;100.00;99176.91;5025368;28;20071;-64
2023/12/11 04:03:27;;;;;;;0.60;0.60;;;;;;;12.14;100.00;99179.63;5010968;28;20060;-64
2023/12/11 04:05:52;;;;;;;0.70;0.70;;;;;;;12.17;100.00;99171.50;5010456;28;20025;-64
2023/12/11 04:08:18;;;;;;;0.60;0.60;;;;;;;12.20;100.00;99158.00;5030388;28;20029;-65
2023/12/11 04:10:43;;;;;;;0.60;0.60;;;;;;;12.25;100.00;99157.75;5013925;28;20024;-63
2023/12/11 04:13:09;;;;;;;0.60;0.60;;;;;;;12.32;100.00;99169.84;5023908;28;20026;-64
2023/12/11 04:15:34;;;;;;;0.60;0.60;;;;;;;12.39;100.00;99158.75;5029966;28;20032;-64
2023/12/11 04:17:59;;;;;;;0.70;0.70;;;;;;;12.41;100.00;99154.19;5028727;28;20026;-64
2023/12/11 04:20:25;;;;;;;0.60;0.60;;;;;;;12.48;100.00;99149.38;5011090;28;20385;-65
2023/12/11 04:22:50;;;;;;;0.60;0.60;;;;;;;12.54;100.00;99159.72;5013708;28;20088;-64
2023/12/11 04:25:16;;;;;;;0.60;0.60;;;;;;;12.54;100.00;99176.59;5011196;28;20509;-64
2023/12/11 04:27:41;;;;;;;0.60;0.60;;;;;;;12.55;100.00;99159.63;5012270;28;20076;-64
2023/12/11 04:30:07;;;;;;;0.60;0.60;;;;;;;12.49;100.00;99146.63;5013802;28;20052;-64
2023/12/11 04:32:32;;;;;;;0.60;0.60;;;;;;;12.46;100.00;99129.94;5006675;28;20040;-63
2023/12/11 04:34:58;;;;;;;0.50;0.50;;;;;;;12.44;100.00;99114.03;4972116;28;1147669;-65
2023/12/11 04:37:23;;;;;;;0.60;0.60;;;;;;;12.39;100.00;99123.22;5012263;28;20049;-64
2023/12/11 04:39:48;;;;;;;0.50;0.50;;;;;;;12.25;100.00;99117.75;5015965;28;20076;-65
2023/12/11 04:42:14;;;;;;;0.60;0.60;;;;;;;12.35;100.00;99143.88;5011844;28;20042;-65
2023/12/11 04:44:39;;;;;;;0.70;0.70;;;;;;;12.34;100.00;99141.28;5026475;28;20033;-65
2023/12/11 04:47:05;;;;;;;0.60;0.60;;;;;;;12.30;100.00;99137.91;5010762;28;20050;-64
2023/12/11 04:49:30;;;;;;;0.60;0.60;;;;;;;12.30;100.00;99118.38;5023583;28;20029;-65
2023/12/11 04:51:56;;;;;;;0.60;0.60;;;;;;;12.33;100.00;99112.88;5014403;28;20041;-65
2023/12/11 04:54:21;;;;;;;0.60;0.60;;;;;;;12.34;100.00;99120.78;5010614;28;20049;-58
2023/12/11 04:56:46;;;;;;;0.60;0.60;;;;;;;12.36;100.00;99129.56;5009486;28;20041;-58
2023/12/11 04:59:12;;;;;;;0.70;0.70;;;;;;;12.35;100.00;99127.88;5018388;28;20033;-59
2023/12/11 05:01:37;;;;;;;0.60;0.60;;;;;;;12.35;100.00;99127.88;5009306;28;20030;-59
2023/12/11 05:04:03;;;;;;;0.60;0.60;;;;;;;12.35;100.00;99127.88;5009814;28;20030;-60
2023/12/11 05:06:28;;;;;;;0.60;0.60;;;;;;;12.38;100.00;99100.16;5008486;28;20026;-59
2023/12/11 05:08:53;;;;;;;0.60;0.60;;;;;;;12.40;100.00;99083.16;5010728;28;20025;-60
2023/12/11 05:11:19;;;;;;;0.60;0.60;;;;;;;12.45;100.00;99077.56;5009473;28;20049;-59
2023/12/11 05:13:44;;;;;;;0.60;0.60;;;;;;;12.46;100.00;99082.78;5010360;28;20061;-60
2023/12/11 05:16:10;;;;;;;0.60;0.60;;;;;;;12.48;100.00;99075.59;5027689;28;20084;-59
2023/12/11 05:18:37;;;;;;;0.70;0.70;;;;;;;12.44;100.00;99087.34;5023492;28;20024;-59
2023/12/11 05:21:09;;;;;;;0.60;0.60;;;;;;;12.43;100.00;99082.09;5010129;28;20517;-58
2023/12/11 05:23:35;;;;;;;0.60;0.60;;;;;;;12.39;100.00;99083.22;5010575;28;20489;-58
2023/12/11 05:26:01;;;;;;;0.68;0.68;;;;;;;12.36;100.00;99092.25;5010103;28;20330;-58
2023/12/11 05:28:26;;;;;;;0.70;0.70;;;;;;;12.37;100.00;99085.94;5010480;28;20139;-58
2023/12/11 05:30:52;;;;;;;0.60;0.60;;;;;;;12.39;100.00;99093.91;5019928;28;20026;-59
2023/12/11 05:33:17;;;;;;;0.60;0.60;;;;;;;12.40;100.00;99101.81;5009965;28;20037;-59
2023/12/11 05:35:43;;;;;;;0.70;0.70;;;;;;;12.49;100.00;99097.75;5010198;28;20136;-59
2023/12/11 05:38:08;;;;;;;0.60;0.60;;;;;;;12.49;100.00;99109.28;5012463;28;20084;-59
2023/12/11 05:40:34;;;;;;;0.60;0.60;;;;;;;12.50;100.00;99119.03;5029705;28;20025;-59
2023/12/11 05:42:59;;;;;;;0.60;0.60;;;;;;;12.57;100.00;99132.91;5029513;28;20025;-59
2023/12/11 05:45:25;;;;;;;0.50;0.50;;;;;;;12.60;100.00;99117.56;5025238;28;20044;-59
2023/12/11 05:47:51;;;;;;;0.70;0.70;;;;;;;12.54;100.00;99096.56;5014084;28;20083;-58
2023/12/11 05:50:16;;;;;;;0.60;0.60;;;;;;;12.60;100.00;99085.53;5009415;28;20030;-59
2023/12/11 05:52:42;;;;;;;0.60;0.60;;;;;;;12.57;100.00;99075.06;5009259;28;20026;-59
2023/12/11 05:55:07;;;;;;;0.60;0.60;;;;;;;12.56;100.00;99072.47;5007546;28;20035;-59
2023/12/11 05:57:33;;;;;;;0.60;0.60;;;;;;;12.53;100.00;99084.19;5010694;28;20029;-59
2023/12/11 05:59:58;;;;;;;0.50;0.50;;;;;;;12.49;100.00;99090.63;5008239;28;20025;-59
2023/12/11 06:02:24;;;;;;;0.60;0.60;;;;;;;12.51;100.00;99088.75;5009023;28;20040;-59
2023/12/11 06:04:51;;;;;;;0.60;0.60;;;;;;;12.54;100.00;99107.25;5008922;28;20091;-58
2023/12/11 06:07:16;;;;;;;0.60;0.60;;;;;;;12.57;100.00;99099.06;5014407;28;20416;-59
2023/12/11 06:09:42;;;;;;;0.60;0.60;;;;;;;12.57;100.00;99107.06;5017542;28;20025;-59
2023/12/11 06:12:09;;;;;;;0.60;0.60;;;;;;;12.59;100.00;99099.84;5009177;28;20026;-59
2023/12/11 06:14:38;;;;;;;0.60;0.60;;;;;;;12.57;100.00;99093.72;5025943;28;20025;-58
2023/12/11 06:17:03;;;;;;;0.60;0.60;;;;;;;12.54;100.00;99093.91;5008283;28;20487;-58
2023/12/11 06:19:29;;;;;;;0.60;0.60;;;;;;;12.52;100.00;99077.13;5014500;28;20053;-60
2023/12/11 06:21:54;;;;;;;0.60;0.60;;;;;;;12.46;100.00;99065.94;5009678;28;20519;-58
2023/12/11 06:24:20;;;;;;;0.60;0.60;;;;;;;12.49;100.00;99058.63;5009804;28;20061;-59
2023/12/11 06:26:45;;;;;;;0.60;0.60;;;;;;;12.51;100.00;99043.41;5011727;28;20128;-60
2023/12/11 06:29:10;;;;;;;0.60;0.60;;;;;;;12.53;100.00;99061.97;5009152;28;20025;-58
2023/12/11 06:31:36;;;;;;;0.60;0.60;;;;;;;12.44;100.00;99073.13;5004847;28;20697;-59
2023/12/11 06:34:01;;;;;;;0.60;0.60;;;;;;;12.35;100.00;99077.19;5009261;28;20108;-58
2023/12/11 06:36:28;;;;;;;0.70;0.70;;;;;;;12.28;100.00;99089.13;5018582;28;20052;-60
2023/12/11 06:38:53;;;;;;;0.60;0.60;;;;;;;12.22;100.00;99084.16;4999296;28;20025;-59
2023/12/11 06:41:19;;;;;;;0.60;0.60;;;;;;;12.17;100.00;99090.66;5002615;28;20080;-59
2023/12/11 06:43:52;;;;;;;0.70;0.70;;;;;;;12.11;100.00;99077.66;5008571;28;20794;-58
2023/12/11 06:46:18;;;;;;;0.70;0.70;;;;;;;12.14;100.00;99064.16;5009982;28;20104;-59
2023/12/11 06:48:44;;;;;;;0.70;0.70;;;;;;;12.16;100.00;99070.28;5015214;28;20057;-58
2023/12/11 06:51:09;;;;;;;0.60;0.60;;;;;;;12.09;100.00;99056.44;5007479;28;20026;-59
2023/12/11 06:53:35;;;;;;;0.70;0.70;;;;;;;12.15;100.00;99047.22;5010391;28;20030;-59
2023/12/11 06:56:00;;;;;;;0.60;0.60;;;;;;;12.15;100.00;99060.53;5007204;28;20018;-58
2023/12/11 06:58:25;;;;;;;0.70;0.70;;;;;;;12.15;100.00;99053.41;5008191;28;20426;-59
2023/12/11 07:00:51;;;;;;;0.60;0.60;;;;;;;12.15;100.00;99042.75;5009916;28;20185;-59
2023/12/11 07:03:17;;;;;;;0.60;0.60;;;;;;;12.20;100.00;99035.38;5008371;28;20046;-58
2023/12/11 07:05:43;;;;;;;0.60;0.60;;;;;;;12.23;100.00;99043.19;5019034;28;20032;-58
2023/12/11 07:08:08;;;;;;;0.60;0.60;;;;;;;12.24;100.00;99044.91;5024317;28;20112;-59
2023/12/11 07:10:34;;;;;;;0.65;0.65;;;;;;;12.28;100.00;99054.47;5010520;28;20156;-59
2023/12/11 07:12:59;;;;;;;0.60;0.60;;;;;;;12.31;100.00;99045.44;5008836;28;20448;-59
2023/12/11 07:15:25;;;;;;;0.60;0.60;;;;;;;12.29;100.00;99052.69;5008686;28;20482;-59
2023/12/11 07:17:50;;;;;;;0.60;0.60;;;;;;;12.28;100.00;99035.81;5009334;28;20037;-59
2023/12/11 07:20:16;;;;;;;0.65;0.65;;;;;;;12.31;100.00;99030.31;5008148;28;20202;-58
2023/12/11 07:22:41;;;;;;;0.60;0.60;;;;;;;12.34;100.00;99029.28;5008358;28;20033;-59
2023/12/11 07:25:07;;;;;;;0.70;0.70;;;;;;;12.31;100.00;99035.63;5008820;28;20120;-59
2023/12/11 07:27:33;;;;;;;0.70;0.70;;;;;;;12.30;100.00;99047.25;5008236;28;20479;-58
2023/12/11 07:29:59;;;;;;;0.70;0.70;;;;;;;12.28;100.00;99061.59;5010280;28;20056;-59
2023/12/11 07:32:25;;;;;;;0.60;0.60;;;;;;;12.24;100.00;99086.72;5011869;28;20084;-58
2023/12/11 07:34:50;;;;;;;0.60;0.60;;;;;;;12.14;100.00;99090.81;5011804;28;20062;-58
2023/12/11 07:37:15;;;;;;;0.65;0.65;;;;;;;12.17;100.00;99099.53;5012604;28;20675;-58
2023/12/11 07:39:41;;;;;;;0.70;0.70;;;;;;;12.19;100.00;99113.59;5013589;28;20168;-58
2023/12/11 07:42:06;;;;;;;0.63;0.63;;;;;;;12.18;100.00;99111.91;5011605;28;20048;-58
2023/12/11 07:44:31;;;;;;;0.70;0.70;;;;;;;12.19;100.00;99108.28;5013757;28;20057;-57
2023/12/11 07:46:57;;;;;;;0.60;0.60;;;;;;;12.19;100.00;99116.28;5011300;28;20026;-59
2023/12/11 07:49:22;;;;;;;0.60;0.60;;;;;;;12.23;100.00;99116.97;5010434;28;20038;-59
2023/12/11 07:51:48;;;;;;;0.63;0.63;;;;;;;12.26;100.00;99117.69;5010694;28;20109;-59
2023/12/11 07:54:13;;;;;;;0.60;0.60;;;;;;;12.28;100.00;99107.81;5012525;28;20042;-59
2023/12/11 07:56:40;;;;;;;0.70;0.70;;;;;;;12.29;100.00;99116.66;5010587;28;20109;-58
2023/12/11 07:59:06;;;;;;;0.60;0.60;;;;;;;12.31;100.00;99098.75;5010681;28;20564;-58
2023/12/11 08:01:32;;;;;;;0.60;0.60;;;;;;;12.35;100.00;99095.88;5010616;28;20109;-58
2023/12/11 08:03:58;;;;;;;0.70;0.70;;;;;;;12.35;100.00;99079.00;5012282;28;20061;-58
2023/12/11 08:06:23;;;;;;;0.60;0.60;;;;;;;12.37;100.00;99080.63;5008617;28;20105;-59
2023/12/11 08:08:49;;;;;;;0.70;0.70;;;;;;;12.39;100.00;99081.41;5010824;28;20801;-59
2023/12/11 08:11:18;;;;;;;0.65;0.65;;;;;;;12.40;100.00;99074.28;5011599;28;20025;-59
2023/12/11 08:13:44;;;;;;;0.60;0.60;;;;;;;12.42;100.00;99069.72;5011390;28;20494;-60
2023/12/11 08:16:10;;;;;;;0.60;0.60;;;;;;;12.41;100.00;99062.66;5010025;28;20054;-59
2023/12/11 08:18:36;;;;;;;0.60;0.60;;;;;;;12.45;100.00;99053.53;5011453;28;20049;-60
2023/12/11 08:21:02;;;;;;;0.60;0.60;;;;;;;12.45;100.00;99054.41;5010405;28;20395;-59
2023/12/11 08:23:28;;;;;;;0.60;0.60;;;;;;;12.42;100.00;99059.06;5012392;28;20025;-60
2023/12/11 08:25:54;;;;;;;0.60;0.60;;;;;;;12.47;100.00;99055.16;5010287;28;20409;-60
2023/12/11 08:28:19;;;;;;;0.60;0.60;;;;;;;12.54;100.00;99056.56;5010137;28;20041;-60
2023/12/11 08:30:44;;;;;;;0.63;0.63;;;;;;;12.61;100.00;99071.28;5010705;28;20026;-60
2023/12/11 08:33:10;;;;;;;0.60;0.60;;;;;;;12.67;100.00;99097.59;5013141;28;20033;-60
2023/12/11 08:35:35;;;;;;;0.60;0.60;;;;;;;12.74;100.00;99100.78;5012888;28;20056;-60
2023/12/11 08:38:01;;;;;;;0.70;0.70;;;;;;;12.73;100.00;99093.75;4999866;28;20040;-59
2023/12/11 08:40:26;;;;;;;0.50;0.50;;;;;;;12.77;100.00;99097.94;5010112;28;20075;-59
2023/12/11 08:42:53;;;;;;;0.60;0.60;;;;;;;12.73;99.85;99118.63;5011445;28;20026;-60
2023/12/11 08:45:18;;;;;;;0.60;0.60;;;;;;;12.72;100.00;99116.03;5012557;28;20115;-60
2023/12/11 08:47:44;;;;;;;0.60;0.60;;;;;;;12.73;100.00;99134.66;5011604;28;20026;-59
2023/12/11 08:50:09;;;;;;;0.60;0.60;;;;;;;12.76;100.00;99129.13;5008551;28;20836;-60
2023/12/11 08:52:36;;;;;;;0.60;0.60;;;;;;;12.82;100.00;99130.56;5009867;28;20414;-60
2023/12/11 08:55:02;;;;;;;0.60;0.60;;;;;;;12.85;100.00;99114.44;4991206;28;20033;-60
2023/12/11 08:57:28;;;;;;;0.60;0.60;;;;;;;12.84;100.00;99121.56;5021949;28;20032;-59
2023/12/11 08:59:54;;;;;;;0.55;0.55;;;;;;;12.88;100.00;99120.41;5017046;28;20026;-60
2023/12/11 09:02:19;;;;;;;0.60;0.60;;;;;;;12.96;99.48;99128.84;5000846;28;20072;-60
2023/12/11 09:04:45;;;;;;;0.60;0.60;;;;;;;13.01;98.64;99123.31;4989952;28;20138;-59
2023/12/11 09:07:10;;;;;;;0.60;0.60;;;;;;;13.08;98.91;99117.53;5005008;28;20847;-60
2023/12/11 09:09:37;;;;;;;0.60;0.60;;;;;;;13.14;98.23;99119.88;5009875;28;20114;-60
2023/12/11 09:12:03;;;;;;;0.52;0.52;;;;;;;13.21;97.42;99126.56;5010942;28;20041;-60
2023/12/11 09:14:28;;;;;;;0.60;0.60;;;;;;;13.30;97.06;99124.31;5012770;28;20033;-59
2023/12/11 09:16:54;;;;;;;0.60;0.60;;;;;;;13.36;96.66;99118.63;5010541;28;20071;-60
2023/12/11 09:19:19;;;;;;;0.50;0.50;;;;;;;13.40;96.04;99117.47;5012086;28;20492;-59
2023/12/11 09:21:45;;;;;;;0.60;0.60;;;;;;;13.44;95.79;99113.69;5010589;28;20025;-61
2023/12/11 09:24:12;;;;;;;0.50;0.50;;;;;;;13.44;94.75;99116.38;5009786;28;20745;-59
2023/12/11 09:26:37;;;;;;;0.60;0.60;;;;;;;13.49;94.92;99119.63;5010421;28;20144;-60
2023/12/11 09:29:03;;;;;;;0.60;0.60;;;;;;;13.55;94.43;99127.28;5011992;28;20029;-61
2023/12/11 09:31:28;;;;;;;0.50;0.50;;;;;;;13.61;94.59;99146.47;5010284;28;20026;-59
2023/12/11 09:33:53;;;;;;;0.50;0.50;;;;;;;13.68;93.79;99146.97;5012281;28;20475;-64
2023/12/11 09:36:19;;;;;;;0.60;0.60;;;;;;;13.72;93.87;99132.50;5028844;28;20033;-64
2023/12/11 09:38:45;;;;;;;0.60;0.60;;;;;;;13.68;93.74;99123.81;5019141;28;20815;-64
2023/12/11 09:41:10;;;;;;;0.50;0.50;;;;;;;13.76;93.61;99139.38;5020668;28;20124;-64
2023/12/11 09:43:36;;;;;;;0.52;0.52;;;;;;;13.82;93.85;99142.53;5027481;28;20025;-65
2023/12/11 09:46:06;;;;;;;0.52;0.52;;;;;;;13.81;92.70;99147.97;5022101;28;20520;-64
2023/12/11 09:48:31;;;;;;;0.60;0.60;;;;;;;13.84;93.13;99137.97;5021457;28;20448;-63
2023/12/11 09:50:57;;;;;;;0.57;0.57;;;;;;;13.97;91.67;99136.28;5007218;28;20030;-64
2023/12/11 09:53:24;;;;;;;0.50;0.50;;;;;;;14.03;91.98;99149.28;5009812;28;20037;-65
2023/12/11 09:55:50;;;;;;;0.50;0.50;;;;;;;14.14;90.87;99145.94;5006996;28;20053;-64
2023/12/11 09:58:16;;;;;;;0.50;0.50;;;;;;;14.26;90.20;99146.13;5009044;28;20060;-63
2023/12/11 10:00:42;;;;;;;0.50;0.50;;;;;;;14.37;87.85;99143.63;5008969;28;20030;-63
2023/12/11 10:03:08;;;;;;;0.50;0.50;;;;;;;14.49;87.45;99142.88;5026870;28;20089;-64
2023/12/11 10:05:35;;;;;;;0.50;0.50;;;;;;;14.44;85.21;99144.13;5030800;28;20385;-65
2023/12/11 10:08:01;;;;;;;0.50;0.50;;;;;;;14.43;84.00;99142.41;5025933;28;20022;-64
2023/12/11 10:10:31;;;;;;;0.60;0.60;;;;;;;14.61;83.13;99143.94;5031028;28;20164;-64
2023/12/11 10:12:58;;;;;;;0.60;0.60;;;;;;;14.70;82.92;99140.66;5027258;28;20034;-65
2023/12/11 10:15:24;;;;;;;0.50;0.50;;;;;;;14.71;83.87;99153.06;5018011;28;20048;-65
2023/12/11 10:18:00;;;;;;;0.50;0.50;;;;;;;14.69;82.85;99152.34;5009803;28;20157;-65
2023/12/11 10:20:26;;;;;;;0.50;0.50;;;;;;;14.71;82.98;99157.59;5011879;28;20022;-65
2023/12/11 10:22:51;;;;;;;0.50;0.50;;;;;;;14.70;82.74;99159.41;5010251;28;20505;-64
2023/12/11 10:25:26;;;;;;;0.50;0.50;;;;;;;14.67;82.24;99164.94;5009785;28;20042;-65
2023/12/11 10:28:07;;;;;;;0.50;0.50;;;;;;;14.68;83.38;99163.16;5009972;28;20543;-64
2023/12/11 10:30:33;;;;;;;0.40;0.40;;;;;;;14.58;84.19;99133.41;5010109;28;20501;-64
2023/12/11 10:33:02;;;;;;;0.52;0.52;;;;;;;14.65;82.84;99152.59;5008786;28;20037;-65
2023/12/11 10:35:28;;;;;;;0.50;0.50;;;;;;;14.71;82.80;99157.59;5009742;28;20156;-64
2023/12/11 10:38:01;;;;;;;0.40;0.40;;;;;;;14.62;81.38;99142.97;5008632;28;20888;-64
2023/12/11 10:40:40;;;;;;;0.50;0.50;;;;;;;14.76;82.73;99159.00;5010810;28;20112;-64
2023/12/11 10:43:05;;;;;;;0.47;0.47;;;;;;;14.74;81.69;99160.06;5008869;28;20474;-64
2023/12/11 10:45:34;;;;;;;0.50;0.50;;;;;;;14.80;83.33;99157.88;5008647;28;20026;-66
2023/12/11 10:48:00;;;;;;;0.50;0.50;;;;;;;14.81;82.40;99162.25;5017599;28;20037;-64
2023/12/11 10:50:26;;;;;;;0.45;0.45;;;;;;;14.84;82.53;99162.09;5009281;28;20037;-64
2023/12/11 10:52:53;;;;;;;0.50;0.50;;;;;;;14.89;81.99;99159.94;5011908;28;20087;-64
2023/12/11 10:55:19;;;;;;;0.50;0.50;;;;;;;14.99;82.02;99163.75;5028207;28;20450;-65
2023/12/11 10:57:45;;;;;;;0.50;0.50;;;;;;;15.00;81.26;99173.53;5008479;28;20079;-64
2023/12/11 11:00:13;;;;;;;0.40;0.40;;;;;;;14.94;81.75;99176.59;5009073;28;20508;-65
2023/12/11 11:02:43;;;;;;;0.50;0.50;;;;;;;14.97;81.60;99170.19;5009655;28;20018;-64
2023/12/11 11:05:10;;;;;;;0.50;0.50;;;;;;;14.97;82.37;99179.09;5010471;28;20061;-64
2023/12/11 11:07:43;;;;;;;0.50;0.50;;;;;;;14.95;82.56;99181.00;5012000;28;20033;-64
2023/12/11 11:10:27;;;;;;;0.50;0.50;;;;;;;14.85;81.95;99187.88;5013192;28;20029;-65
2023/12/11 11:13:11;;;;;;;0.40;0.40;;;;;;;14.90;83.18;99184.91;5012885;28;20037;-65
2023/12/11 11:15:36;;;;;;;0.50;0.50;;;;;;;14.80;82.39;99183.78;5013059;28;20034;-64
2023/12/11 11:18:05;;;;;;;0.50;0.50;;;;;;;14.78;84.25;99191.91;5013128;28;20033;-65
2023/12/11 11:20:38;;;;;;;0.50;0.50;;;;;;;14.78;83.63;99189.22;5014306;28;20026;-65